createdAt,value
2022-12-20T00:01:23.225Z,-0.27
2022-12-20T00:04:26.129Z,-0.19
2022-12-20T00:07:28.963Z,-0.09
2022-12-20T00:10:31.761Z,-0.11
2022-12-20T00:13:35.099Z,-0.13
2022-12-20T00:16:38.048Z,-0.09
2022-12-20T00:19:41.111Z,-0.04
2022-12-20T00:22:43.880Z,0.14
2022-12-20T00:25:46.597Z,0.15
2022-12-20T00:28:49.412Z,0.13
2022-12-20T00:31:52.315Z,0.34
2022-12-20T00:34:55.137Z,0.28
2022-12-20T00:37:57.962Z,0.24
2022-12-20T00:41:15.829Z,0.28
2022-12-20T00:44:18.613Z,0.26
2022-12-20T00:47:21.561Z,0.32
2022-12-20T00:50:24.543Z,0.32
2022-12-20T00:53:28.218Z,0.35
2022-12-20T00:56:31.296Z,0.44
2022-12-20T00:59:34.314Z,0.37
2022-12-20T01:02:37.207Z,0.36
2022-12-20T01:05:53.486Z,0.37
2022-12-20T01:08:57.372Z,0.31
2022-12-20T01:12:00.101Z,0.29
2022-12-20T01:15:04.495Z,0.24
2022-12-20T01:18:07.283Z,0.24
2022-12-20T01:21:12.958Z,0.24
2022-12-20T01:24:18.954Z,0.23
2022-12-20T01:27:21.830Z,0.21
2022-12-20T01:30:24.642Z,0.26
2022-12-20T01:33:28.046Z,0.22
2022-12-20T01:36:34.475Z,0.21
2022-12-20T01:39:37.320Z,0.23
2022-12-20T01:42:40.034Z,0.24
2022-12-20T01:45:42.961Z,0.22
2022-12-20T01:48:53.954Z,0.22
2022-12-20T01:52:05.670Z,0.24
2022-12-20T01:55:26.465Z,0.26
2022-12-20T01:58:29.992Z,0.28
2022-12-20T02:01:32.999Z,0.28
2022-12-20T02:04:36.160Z,0.30
2022-12-20T02:07:39.237Z,0.30
2022-12-20T02:10:57.288Z,0.33
2022-12-20T02:14:21.173Z,0.32
2022-12-20T02:17:30.237Z,0.35
2022-12-20T02:21:00.883Z,0.31
2022-12-20T02:24:27.738Z,0.35
2022-12-20T02:27:49.086Z,0.37
2022-12-20T02:30:55.021Z,0.36
2022-12-20T02:33:59.612Z,0.37
2022-12-20T02:37:03.095Z,0.39
2022-12-20T02:40:06.658Z,0.37
2022-12-20T02:43:30.103Z,0.33
2022-12-20T02:46:35.833Z,0.31
2022-12-20T02:49:41.303Z,0.28
2022-12-20T02:52:44.737Z,0.29
2022-12-20T02:55:54.590Z,0.28
2022-12-20T02:59:09.194Z,0.25
2022-12-20T03:02:13.178Z,0.25
2022-12-20T03:05:16.720Z,0.28
2022-12-20T03:08:21.475Z,0.34
2022-12-20T03:11:24.138Z,0.31
2022-12-20T03:14:27.675Z,0.29
2022-12-20T03:17:30.616Z,0.28
2022-12-20T03:20:33.756Z,0.33
2022-12-20T03:23:36.232Z,0.31
2022-12-20T03:26:40.892Z,0.30
2022-12-20T03:29:45.963Z,0.32
2022-12-20T03:32:49.183Z,0.31
2022-12-20T03:35:51.711Z,0.31
2022-12-20T03:38:55.153Z,0.28
2022-12-20T03:41:58.551Z,0.30
2022-12-20T03:45:01.765Z,0.30
2022-12-20T03:48:04.881Z,0.29
2022-12-20T03:51:08.741Z,0.25
2022-12-20T03:54:11.336Z,0.26
2022-12-20T03:57:15.394Z,0.25
2022-12-20T04:00:18.559Z,0.32
2022-12-20T04:03:22.701Z,0.21
2022-12-20T04:06:25.211Z,0.20
2022-12-20T04:09:28.521Z,0.17
2022-12-20T04:12:31.976Z,0.15
2022-12-20T04:15:35.217Z,0.13
2022-12-20T04:18:38.181Z,0.15
2022-12-20T04:21:41.630Z,0.15
2022-12-20T04:24:44.280Z,0.14
2022-12-20T04:27:47.972Z,0.13
2022-12-20T04:30:50.446Z,0.11
2022-12-20T04:33:54.557Z,0.09
2022-12-20T04:36:57.108Z,0.12
2022-12-20T04:40:00.329Z,0.10
2022-12-20T04:43:02.970Z,0.14
2022-12-20T04:46:06.225Z,0.17
2022-12-20T04:49:09.002Z,0.20
2022-12-20T04:52:32.818Z,0.20
2022-12-20T04:55:41.022Z,0.29
2022-12-20T04:58:45.067Z,0.29
2022-12-20T05:01:47.643Z,0.29
2022-12-20T05:04:50.790Z,0.28
2022-12-20T05:07:53.889Z,0.24
2022-12-20T05:10:57.240Z,0.24
2022-12-20T05:14:00.105Z,0.24
2022-12-20T05:17:03.438Z,0.23
2022-12-20T05:20:07.827Z,0.27
2022-12-20T05:23:30.363Z,0.27
2022-12-20T05:26:37.721Z,0.30
2022-12-20T05:29:41.518Z,0.28
2022-12-20T05:32:44.984Z,0.28
2022-12-20T05:35:48.139Z,0.26
2022-12-20T05:38:51.343Z,0.27
2022-12-20T05:41:54.738Z,0.27
2022-12-20T05:44:57.941Z,0.26
2022-12-20T05:48:01.285Z,0.25
2022-12-20T05:51:04.652Z,0.23
2022-12-20T05:54:08.406Z,0.23
2022-12-20T05:57:14.726Z,0.18
2022-12-20T06:00:17.995Z,0.20
2022-12-20T06:03:23.883Z,0.21
2022-12-20T06:06:26.888Z,0.20
2022-12-20T06:09:30.269Z,0.18
2022-12-20T06:12:35.132Z,0.20
2022-12-20T06:15:38.537Z,0.16
2022-12-20T06:18:41.336Z,0.11
2022-12-20T06:21:44.907Z,0.21
2022-12-20T06:24:48.919Z,0.14
2022-12-20T06:27:52.191Z,0.16
2022-12-20T06:30:58.697Z,0.17
2022-12-20T06:34:02.078Z,0.22
2022-12-20T06:37:05.333Z,0.23
2022-12-20T06:40:10.981Z,0.25
2022-12-20T06:43:13.897Z,0.28
2022-12-20T06:46:16.996Z,0.27
2022-12-20T06:49:20.322Z,0.30
2022-12-20T06:52:24.231Z,0.37
2022-12-20T06:55:29.985Z,0.40
2022-12-20T06:58:33.066Z,0.44
2022-12-20T07:01:36.195Z,0.51
2022-12-20T07:04:39.230Z,0.52
2022-12-20T07:07:45.115Z,0.59
2022-12-20T07:10:48.592Z,0.62
2022-12-20T07:13:56.008Z,0.65
2022-12-20T07:16:58.828Z,0.71
2022-12-20T07:20:04.195Z,0.80
2022-12-20T07:23:09.133Z,0.87
2022-12-20T07:26:11.898Z,0.97
2022-12-20T07:29:15.838Z,1.01
2022-12-20T07:32:19.198Z,1.09
2022-12-20T07:35:22.149Z,1.14
2022-12-20T07:38:24.929Z,1.17
2022-12-20T07:41:28.190Z,1.24
2022-12-20T07:44:30.994Z,1.31
2022-12-20T07:47:35.926Z,1.45
2022-12-20T07:50:38.884Z,1.44
2022-12-20T07:53:48.600Z,1.56
2022-12-20T07:56:55.120Z,1.66
2022-12-20T08:00:01.193Z,1.83
2022-12-20T08:03:10.961Z,1.95
2022-12-20T08:06:15.502Z,2.16
2022-12-20T08:09:19.288Z,2.30
2022-12-20T08:12:23.093Z,2.19
2022-12-20T08:15:26.209Z,2.18
2022-12-20T08:18:29.452Z,2.13
2022-12-20T08:21:32.234Z,2.09
2022-12-20T08:24:35.103Z,2.06
2022-12-20T08:27:38.054Z,1.99
2022-12-20T08:30:40.822Z,2.00
2022-12-20T08:33:43.886Z,2.04
2022-12-20T08:36:46.710Z,2.02
2022-12-20T08:39:50.004Z,2.14
2022-12-20T08:42:52.874Z,2.78
2022-12-20T08:45:55.871Z,3.63
2022-12-20T08:48:58.700Z,4.44
2022-12-20T08:52:02.064Z,5.00
2022-12-20T08:55:05.711Z,5.52
2022-12-20T08:58:08.761Z,6.06
2022-12-20T09:01:18.385Z,6.55
2022-12-20T09:04:21.845Z,7.07
2022-12-20T09:07:24.521Z,7.61
2022-12-20T09:10:27.281Z,8.48
2022-12-20T09:13:30.068Z,9.43
2022-12-20T09:16:33.942Z,10.01
2022-12-20T09:19:36.748Z,9.96
2022-12-20T09:22:39.940Z,10.29
2022-12-20T09:25:42.785Z,11.10
2022-12-20T09:28:46.128Z,11.70
2022-12-20T09:31:49.807Z,11.52
2022-12-20T09:34:52.610Z,11.40
2022-12-20T09:37:55.539Z,11.66
2022-12-20T09:41:03.467Z,12.38
2022-12-20T09:44:18.962Z,12.38
2022-12-20T09:47:26.434Z,11.98
2022-12-20T09:50:39.894Z,11.75
2022-12-20T09:53:48.700Z,12.11
2022-12-20T09:57:09.708Z,11.91
2022-12-20T10:00:20.411Z,11.40
2022-12-20T10:03:29.321Z,11.09
2022-12-20T10:06:44.692Z,11.35
2022-12-20T10:10:02.711Z,12.17
2022-12-20T10:13:25.662Z,12.47
2022-12-20T10:16:39.090Z,12.86
2022-12-20T10:20:06.733Z,13.80
2022-12-20T10:23:33.543Z,14.18
2022-12-20T10:26:38.294Z,14.12
2022-12-20T10:29:41.599Z,13.56
2022-12-20T10:32:50.964Z,13.14
2022-12-20T10:35:53.939Z,12.94
2022-12-20T10:38:59.367Z,12.98
2022-12-20T10:42:02.317Z,12.82
2022-12-20T10:45:23.382Z,12.72
2022-12-20T10:48:30.762Z,12.63
2022-12-20T10:51:36.707Z,13.34
2022-12-20T10:54:47.084Z,13.56
2022-12-20T10:57:50.164Z,13.58
2022-12-20T11:01:09.417Z,12.27
2022-12-20T11:04:33.212Z,10.30
2022-12-20T11:07:37.519Z,9.04
2022-12-20T11:10:40.947Z,8.06
2022-12-20T11:13:45.305Z,7.40
2022-12-20T11:16:54.477Z,6.89
2022-12-20T11:20:05.361Z,7.32
2022-12-20T11:23:50.888Z,8.19
2022-12-20T11:27:15.693Z,8.68
2022-12-20T11:30:33.651Z,8.32
2022-12-20T11:33:36.426Z,7.93
2022-12-20T11:36:45.236Z,7.79
2022-12-20T11:40:16.391Z,7.77
2022-12-20T11:44:23.160Z,7.49
2022-12-20T11:47:17.138Z,7.56
2022-12-20T11:50:26.051Z,8.02
2022-12-20T11:53:45.241Z,9.17
2022-12-20T11:56:53.281Z,10.55
2022-12-20T12:00:00.228Z,11.66
2022-12-20T12:03:12.738Z,12.58
2022-12-20T12:06:27.239Z,12.60
2022-12-20T12:09:37.447Z,11.39
2022-12-20T12:12:50.730Z,11.70
2022-12-20T12:16:05.863Z,12.64
2022-12-20T12:19:13.364Z,12.92
2022-12-20T12:22:24.353Z,11.78
2022-12-20T12:25:27.329Z,10.29
2022-12-20T12:28:30.190Z,9.61
2022-12-20T12:31:44.494Z,9.18
2022-12-20T12:35:19.540Z,8.72
2022-12-20T12:38:47.027Z,8.26
2022-12-20T12:42:18.076Z,7.69
2022-12-20T12:45:29.189Z,7.07
2022-12-20T12:48:55.614Z,6.61
2022-12-20T12:52:05.353Z,6.32
2022-12-20T12:55:45.585Z,5.97
2022-12-20T12:59:07.123Z,5.71
2022-12-20T13:02:13.241Z,5.48
2022-12-20T13:05:25.910Z,5.26
2022-12-20T13:08:49.291Z,5.10
2022-12-20T13:12:00.485Z,4.93
2022-12-20T13:15:21.461Z,4.85
2022-12-20T13:18:25.747Z,4.74
2022-12-20T13:21:35.344Z,4.63
2022-12-20T13:24:38.267Z,4.56
2022-12-20T13:27:42.332Z,4.48
2022-12-20T13:31:09.971Z,4.45
2022-12-20T13:34:53.892Z,4.40
2022-12-20T13:38:06.088Z,4.37
2022-12-20T13:41:34.868Z,4.42
2022-12-20T13:44:45.216Z,4.33
2022-12-20T13:47:57.355Z,4.28
2022-12-20T13:51:02.458Z,4.20
2022-12-20T13:54:15.300Z,4.12
2022-12-20T13:57:27.004Z,4.12
2022-12-20T14:00:30.201Z,4.05
2022-12-20T14:03:40.346Z,3.99
2022-12-20T14:06:43.587Z,3.96
2022-12-20T14:09:47.550Z,3.90
2022-12-20T14:12:54.017Z,3.88
2022-12-20T14:16:17.796Z,3.88
2022-12-20T14:19:20.660Z,3.83
2022-12-20T14:22:23.729Z,3.78
2022-12-20T14:25:51.515Z,3.74
2022-12-20T14:28:59.262Z,3.70
2022-12-20T14:32:03.781Z,3.63
2022-12-20T14:35:18.089Z,3.60
2022-12-20T14:38:30.592Z,3.55
2022-12-20T14:41:38.954Z,3.48
2022-12-20T14:44:41.783Z,3.42
2022-12-20T14:47:59.311Z,3.34
2022-12-20T14:51:05.169Z,3.30
2022-12-20T14:54:47.824Z,3.25
2022-12-20T14:57:50.478Z,3.19
2022-12-20T15:01:17.650Z,3.13
2022-12-20T15:04:34.243Z,3.14
2022-12-20T15:07:41.725Z,3.03
2022-12-20T15:10:55.725Z,3.01
2022-12-20T15:13:59.272Z,2.97
2022-12-20T15:17:03.639Z,2.97
2022-12-20T15:20:11.957Z,2.97
2022-12-20T15:23:20.375Z,2.88
2022-12-20T15:26:26.060Z,2.81
2022-12-20T15:29:29.509Z,2.73
2022-12-20T15:32:32.670Z,2.71
2022-12-20T15:35:35.783Z,2.64
2022-12-20T15:39:10.838Z,2.58
2022-12-20T15:42:04.778Z,2.53
2022-12-20T15:45:13.122Z,2.48
2022-12-20T15:48:18.688Z,2.43
2022-12-20T15:51:31.928Z,2.37
2022-12-20T15:54:36.983Z,2.37
2022-12-20T15:57:40.052Z,2.34
2022-12-20T16:00:43.463Z,2.37
2022-12-20T16:03:46.931Z,2.38
2022-12-20T16:06:51.051Z,2.39
2022-12-20T16:09:54.227Z,2.30
2022-12-20T16:12:57.131Z,2.25
2022-12-20T16:16:00.429Z,2.29
2022-12-20T16:19:03.988Z,2.29
2022-12-20T16:22:14.094Z,2.31
2022-12-20T16:25:32.383Z,2.32
2022-12-20T16:28:35.227Z,2.39
2022-12-20T16:31:42.224Z,2.34
2022-12-20T16:34:45.705Z,2.34
2022-12-20T16:37:49.125Z,2.27
2022-12-20T16:40:52.024Z,2.23
2022-12-20T16:43:56.469Z,2.19
2022-12-20T16:46:59.427Z,2.15
2022-12-20T16:50:02.522Z,2.15
2022-12-20T16:53:05.617Z,2.16
2022-12-20T16:56:10.900Z,2.14
2022-12-20T16:59:19.800Z,2.12
2022-12-20T17:02:33.038Z,2.17
2022-12-20T17:05:37.325Z,2.21
2022-12-20T17:08:52.977Z,2.18
2022-12-20T17:11:55.853Z,2.14
2022-12-20T17:14:58.685Z,2.16
2022-12-20T17:18:01.532Z,2.09
2022-12-20T17:21:13.467Z,2.04
2022-12-20T17:24:21.647Z,2.09
2022-12-20T17:27:24.944Z,2.11
2022-12-20T17:30:27.795Z,2.06
2022-12-20T17:33:30.707Z,2.02
2022-12-20T17:36:38.093Z,1.99
2022-12-20T17:39:41.250Z,1.99
2022-12-20T17:42:44.166Z,2.01
2022-12-20T17:45:47.696Z,2.01
2022-12-20T17:48:50.811Z,1.97
2022-12-20T17:51:53.722Z,1.99
2022-12-20T17:54:56.577Z,1.94
2022-12-20T17:57:59.386Z,1.93
2022-12-20T18:01:02.515Z,1.94
2022-12-20T18:04:06.810Z,2.01
2022-12-20T18:07:09.373Z,1.99
2022-12-20T18:10:12.513Z,1.96
2022-12-20T18:13:15.078Z,1.92
2022-12-20T18:16:21.437Z,1.92
2022-12-20T18:19:24.714Z,1.88
2022-12-20T18:22:27.881Z,1.88
2022-12-20T18:25:30.631Z,1.91
2022-12-20T18:28:34.413Z,1.88
2022-12-20T18:31:37.171Z,1.84
2022-12-20T18:34:40.287Z,1.84
2022-12-20T18:37:42.935Z,1.84
2022-12-20T18:40:46.056Z,1.83
2022-12-20T18:43:50.170Z,1.80
2022-12-20T18:46:53.833Z,1.83
2022-12-20T18:49:56.479Z,1.78
2022-12-20T18:53:01.448Z,1.78
2022-12-20T18:56:14.326Z,1.78
2022-12-20T18:59:17.476Z,1.80
2022-12-20T19:02:20.157Z,1.75
2022-12-20T19:05:24.752Z,1.72
2022-12-20T19:08:29.172Z,1.74
2022-12-20T19:11:32.750Z,1.73
2022-12-20T19:14:35.300Z,1.72
2022-12-20T19:17:38.459Z,1.73
2022-12-20T19:20:41.539Z,1.75
2022-12-20T19:23:47.099Z,1.71
2022-12-20T19:26:49.684Z,1.73
2022-12-20T19:29:54.503Z,1.71
2022-12-20T19:32:57.045Z,1.73
2022-12-20T19:36:08.380Z,1.72
2022-12-20T19:39:23.199Z,1.75
2022-12-20T19:42:29.201Z,1.75
2022-12-20T19:45:32.085Z,1.73
2022-12-20T19:48:35.657Z,1.71
2022-12-20T19:51:38.081Z,1.72
2022-12-20T19:54:43.130Z,1.69
2022-12-20T19:57:45.700Z,1.69
2022-12-20T20:00:50.346Z,1.65
2022-12-20T20:03:54.609Z,1.66
2022-12-20T20:06:57.786Z,1.67
2022-12-20T20:10:02.044Z,1.67
2022-12-20T20:13:05.057Z,1.65
2022-12-20T20:16:10.181Z,1.69
2022-12-20T20:19:13.162Z,1.71
2022-12-20T20:22:22.547Z,1.72
2022-12-20T20:25:26.391Z,1.75
2022-12-20T20:28:33.080Z,1.76
2022-12-20T20:31:37.503Z,1.77
2022-12-20T20:34:40.469Z,1.81
2022-12-20T20:37:43.326Z,1.84
2022-12-20T20:40:46.172Z,1.81
2022-12-20T20:43:49.310Z,1.82
2022-12-20T20:46:52.237Z,1.85
2022-12-20T20:49:55.284Z,1.84
2022-12-20T20:52:58.186Z,1.84
2022-12-20T20:56:02.640Z,1.85
2022-12-20T20:59:09.272Z,1.85
2022-12-20T21:02:16.918Z,1.84
2022-12-20T21:08:42.699Z,1.86
2022-12-20T21:11:45.789Z,1.84
2022-12-20T21:15:20.784Z,1.83
2022-12-20T21:18:11.935Z,1.80
2022-12-20T21:21:14.762Z,1.80
2022-12-20T21:24:17.715Z,1.77
2022-12-20T21:27:20.501Z,1.74
2022-12-20T21:30:23.888Z,1.74
2022-12-20T21:33:28.809Z,1.77
2022-12-20T21:36:31.758Z,1.78
2022-12-20T21:39:35.070Z,1.78
2022-12-20T21:42:37.858Z,1.77
2022-12-20T21:45:40.729Z,1.77
2022-12-20T21:48:44.801Z,1.76
2022-12-20T21:51:47.908Z,1.73
2022-12-20T21:54:50.763Z,1.76
2022-12-20T21:57:53.585Z,1.77
2022-12-20T22:00:57.513Z,1.76
2022-12-20T22:04:03.135Z,1.77
2022-12-20T22:07:05.952Z,1.74
2022-12-20T22:10:09.480Z,1.75
2022-12-20T22:13:12.557Z,1.78
2022-12-20T22:16:18.964Z,1.76
2022-12-20T22:19:21.571Z,1.78
2022-12-20T22:22:25.588Z,1.77
2022-12-20T22:25:28.692Z,1.76
2022-12-20T22:28:32.206Z,1.75
2022-12-20T22:31:36.545Z,1.76
2022-12-20T22:34:39.861Z,1.78
2022-12-20T22:37:42.372Z,1.90
2022-12-20T22:40:45.482Z,1.79
2022-12-20T22:43:48.827Z,1.77
2022-12-20T22:46:51.925Z,1.80
2022-12-20T22:49:54.932Z,1.87
2022-12-20T22:52:58.425Z,1.82
2022-12-20T22:56:02.026Z,1.82
2022-12-20T22:59:05.143Z,1.77
2022-12-20T23:02:07.726Z,1.77
2022-12-20T23:05:10.976Z,1.78
2022-12-20T23:08:13.461Z,1.80
2022-12-20T23:11:38.042Z,1.78
2022-12-20T23:15:03.570Z,1.77
2022-12-20T23:18:07.313Z,1.82
2022-12-20T23:21:29.168Z,1.81
2022-12-20T23:24:32.282Z,1.80
2022-12-20T23:27:35.279Z,1.81
2022-12-20T23:30:38.240Z,1.81
2022-12-20T23:33:40.737Z,1.77
2022-12-20T23:36:44.016Z,1.76
2022-12-20T23:39:46.593Z,1.76
2022-12-20T23:42:52.734Z,1.77
2022-12-20T23:45:55.399Z,1.77
2022-12-20T23:48:58.643Z,1.77
2022-12-20T23:52:01.160Z,1.76
2022-12-20T23:55:04.693Z,1.78
2022-12-20T23:58:07.292Z,1.77
